Time;durP1;ratioP1;P1;durP2;ratioP2;P2;SDS_P1;SDS_P2;PMS_P1;PMS_P2;Temp;Humidity;BMP_temperature;BMP_pressure;BME280_temperature;BME280_humidity;BME280_pressure;Samples;Min_cycle;Max_cycle;Signal;HPM_P1;HPM_P2
2023/09/21 02:49:23;;;;;;;1999.90;999.90;;;;;;;;;;5606539;23;20237;-71
2023/09/21 02:52:08;;;;;;;1999.90;999.90;;;;;;;;;;4976590;28;20215;-68
2023/09/21 02:54:54;;;;;;;1999.90;999.90;;;;;;;;;;4975751;28;20595;-71
2023/09/21 02:57:39;;;;;;;1999.90;999.90;;;;;;;;;;4971204;28;20228;-73
2023/09/21 03:00:28;;;;;;;1999.90;999.90;;;;;;;;;;4958377;28;20247;-67
2023/09/21 03:03:14;;;;;;;1999.90;999.90;;;;;;;;;;4951561;28;20708;-71
2023/09/21 03:06:01;;;;;;;1999.90;999.90;;;;;;;;;;4953282;28;20484;-71
2023/09/21 03:08:49;;;;;;;1999.90;999.90;;;;;;;;;;4949045;28;20253;-71
2023/09/21 03:11:34;;;;;;;1999.90;999.90;;;;;;;;;;4952239;28;20217;-69
2023/09/21 03:14:20;;;;;;;1999.90;999.90;;;;;;;;;;4952808;28;20595;-68
2023/09/21 03:17:07;;;;;;;1999.90;999.90;;;;;;;;;;4958321;28;20720;-71
2023/09/21 03:19:53;;;;;;;1999.90;999.90;;;;;;;;;;4947325;28;20236;-70
2023/09/21 03:22:41;;;;;;;1999.90;999.90;;;;;;;;;;4945867;28;20287;-71
2023/09/21 03:25:28;;;;;;;1999.90;999.90;;;;;;;;;;4952607;28;20217;-71
2023/09/21 03:28:13;;;;;;;1999.90;999.90;;;;;;;;;;4953104;28;20213;-68
2023/09/21 03:30:58;;;;;;;1999.90;999.90;;;;;;;;;;4949048;28;20614;-69
2023/09/21 03:33:46;;;;;;;1999.90;999.90;;;;;;;;;;4947240;28;20212;-71
2023/09/21 03:36:35;;;;;;;1999.90;999.90;;;;;;;;;;4945827;28;20219;-70
2023/09/21 03:39:27;;;;;;;1999.90;999.90;;;;;;;;;;4946271;28;20315;-70
2023/09/21 03:42:12;;;;;;;1999.90;999.90;;;;;;;;;;4960149;28;20205;-69
2023/09/21 03:44:57;;;;;;;1999.90;999.90;;;;;;;;;;4960030;28;20228;-71
2023/09/21 03:47:42;;;;;;;1999.90;999.90;;;;;;;;;;4951375;28;20215;-70
2023/09/21 03:50:27;;;;;;;1999.90;999.90;;;;;;;;;;4955257;28;20295;-71
2023/09/21 03:53:13;;;;;;;1999.90;999.90;;;;;;;;;;4963710;28;20215;-70
2023/09/21 03:56:01;;;;;;;1999.90;999.90;;;;;;;;;;4959853;28;20563;-71
2023/09/21 03:58:46;;;;;;;1999.90;999.90;;;;;;;;;;4948044;28;20248;-70
2023/09/21 04:01:31;;;;;;;1999.90;999.90;;;;;;;;;;4964673;28;20212;-70
2023/09/21 04:04:18;;;;;;;1999.90;999.90;;;;;;;;;;4967077;28;20735;-71
2023/09/21 04:07:03;;;;;;;1999.90;999.90;;;;;;;;;;4957690;28;20763;-70
2023/09/21 04:09:48;;;;;;;1999.90;999.90;;;;;;;;;;4958392;28;20366;-71
2023/09/21 04:12:34;;;;;;;1999.90;999.90;;;;;;;;;;4964942;28;20211;-71
2023/09/21 04:15:19;;;;;;;1999.90;999.90;;;;;;;;;;4960655;28;20249;-71
2023/09/21 04:18:09;;;;;;;1999.90;999.90;;;;;;;;;;4968893;28;21010;-71
2023/09/21 04:20:53;;;;;;;1999.90;999.90;;;;;;;;;;4956149;28;20337;-71
2023/09/21 04:23:38;;;;;;;1999.90;999.90;;;;;;;;;;4954926;28;20217;-71
2023/09/21 04:26:23;;;;;;;1999.90;999.90;;;;;;;;;;4962523;28;20321;-71
2023/09/21 04:29:09;;;;;;;1999.90;999.90;;;;;;;;;;4964375;28;20279;-71
2023/09/21 04:31:55;;;;;;;1999.90;999.90;;;;;;;;;;4961037;28;20205;-71
2023/09/21 04:34:39;;;;;;;1999.90;999.90;;;;;;;;;;4955962;28;20231;-71
2023/09/21 04:37:24;;;;;;;1999.90;999.90;;;;;;;;;;4954657;28;20590;-71
2023/09/21 04:40:10;;;;;;;1999.90;999.90;;;;;;;;;;4952949;29;20721;-70
2023/09/21 04:42:56;;;;;;;1999.90;999.90;;;;;;;;;;4958270;28;20220;-73
2023/09/21 04:45:47;;;;;;;1999.90;999.90;;;;;;;;;;4953845;28;20756;-70
2023/09/21 04:48:33;;;;;;;1999.90;999.90;;;;;;;;;;4960713;28;20304;-71
2023/09/21 04:51:18;;;;;;;1999.90;999.90;;;;;;;;;;4969716;28;20235;-69
2023/09/21 04:54:03;;;;;;;1999.90;999.90;;;;;;;;;;4960356;28;20581;-71
2023/09/21 04:56:50;;;;;;;1999.90;999.90;;;;;;;;;;4957672;28;20291;-70
2023/09/21 04:59:35;;;;;;;1999.90;999.90;;;;;;;;;;4963702;28;20231;-70
2023/09/21 05:02:21;;;;;;;1999.90;999.90;;;;;;;;;;4963338;28;20238;-70
2023/09/21 05:05:07;;;;;;;1999.90;999.90;;;;;;;;;;4961320;28;20256;-70
2023/09/21 05:07:52;;;;;;;1999.90;999.90;;;;;;;;;;4944157;28;20582;-71
2023/09/21 05:10:37;;;;;;;1999.90;999.90;;;;;;;;;;4967294;28;20351;-71
2023/09/21 05:13:22;;;;;;;1999.90;999.90;;;;;;;;;;4964204;28;20208;-71
2023/09/21 05:16:07;;;;;;;1999.90;999.90;;;;;;;;;;4961546;28;20721;-71
2023/09/21 05:18:55;;;;;;;1999.90;999.90;;;;;;;;;;4962575;28;20236;-71
2023/09/21 05:21:40;;;;;;;1999.90;999.90;;;;;;;;;;4973651;28;20254;-71
2023/09/21 05:24:25;;;;;;;1999.90;999.90;;;;;;;;;;4963100;28;20293;-71
2023/09/21 05:27:11;;;;;;;1999.90;999.90;;;;;;;;;;4960634;28;20209;-72
2023/09/21 05:29:57;;;;;;;1999.90;999.90;;;;;;;;;;4961314;28;20838;-71
2023/09/21 05:32:41;;;;;;;1999.90;999.90;;;;;;;;;;4947966;28;20270;-71
2023/09/21 05:35:28;;;;;;;1999.90;999.90;;;;;;;;;;4963464;28;20626;-72
2023/09/21 05:38:13;;;;;;;1999.90;999.90;;;;;;;;;;4955954;28;20217;-71
2023/09/21 05:40:57;;;;;;;1999.90;999.90;;;;;;;;;;4958204;28;20616;-71
2023/09/21 05:43:42;;;;;;;1999.90;999.90;;;;;;;;;;4961964;28;20228;-71
2023/09/21 05:46:27;;;;;;;1999.90;999.90;;;;;;;;;;4963219;28;20222;-72
2023/09/21 05:49:19;;;;;;;1999.90;999.90;;;;;;;;;;4962968;28;20236;-71
2023/09/21 05:52:11;;;;;;;1999.90;999.90;;;;;;;;;;4967665;28;20240;-71
2023/09/21 05:54:57;;;;;;;1999.90;999.90;;;;;;;;;;4955043;28;20744;-71
2023/09/21 05:57:46;;;;;;;1999.90;999.90;;;;;;;;;;4962838;28;20216;-71
2023/09/21 06:00:31;;;;;;;1999.90;999.90;;;;;;;;;;4964908;28;20240;-72
2023/09/21 06:03:16;;;;;;;1999.90;999.90;;;;;;;;;;4947635;28;20589;-70
2023/09/21 06:06:01;;;;;;;1999.90;999.90;;;;;;;;;;4957318;28;20207;-71
2023/09/21 06:08:48;;;;;;;1999.90;999.90;;;;;;;;;;4963521;28;20251;-72
2023/09/21 06:11:33;;;;;;;1999.90;999.90;;;;;;;;;;4956305;28;20726;-70
2023/09/21 06:14:19;;;;;;;1999.90;999.90;;;;;;;;;;4965773;28;20212;-72
2023/09/21 06:17:05;;;;;;;1999.90;999.90;;;;;;;;;;4952702;28;20221;-70
2023/09/21 06:19:53;;;;;;;1999.90;999.90;;;;;;;;;;4947482;28;20237;-72
2023/09/21 06:22:38;;;;;;;1999.90;999.90;;;;;;;;;;4951802;28;20221;-71
2023/09/21 06:25:24;;;;;;;1999.90;999.90;;;;;;;;;;4952701;28;20709;-71
2023/09/21 06:28:10;;;;;;;1999.90;999.90;;;;;;;;;;4950732;28;20576;-71
2023/09/21 06:30:55;;;;;;;1999.90;999.90;;;;;;;;;;4949281;28;20910;-72
2023/09/21 06:33:40;;;;;;;1999.90;999.90;;;;;;;;;;4962161;28;20264;-70
2023/09/21 06:36:28;;;;;;;1999.90;999.90;;;;;;;;;;4971296;28;20707;-71
2023/09/21 06:39:14;;;;;;;1999.90;999.90;;;;;;;;;;4974380;28;20275;-71
2023/09/21 06:42:00;;;;;;;1999.90;999.90;;;;;;;;;;4973693;28;20469;-71
2023/09/21 06:44:45;;;;;;;1999.90;999.90;;;;;;;;;;4974089;28;20207;-72
2023/09/21 06:47:30;;;;;;;1999.90;999.90;;;;;;;;;;4974336;28;20344;-72
2023/09/21 06:50:15;;;;;;;1999.90;999.90;;;;;;;;;;4970180;28;20242;-72
2023/09/21 06:53:00;;;;;;;1999.90;999.90;;;;;;;;;;4954252;28;20296;-71
2023/09/21 06:55:45;;;;;;;1999.90;999.90;;;;;;;;;;4954348;28;20223;-72
2023/09/21 06:58:31;;;;;;;1999.90;999.90;;;;;;;;;;4962099;28;20211;-72
2023/09/21 07:01:16;;;;;;;1999.90;999.90;;;;;;;;;;4954479;28;20212;-70
2023/09/21 07:04:02;;;;;;;1999.90;999.90;;;;;;;;;;4962344;28;20727;-70
2023/09/21 07:06:47;;;;;;;1999.90;999.90;;;;;;;;;;4954038;28;20592;-71
2023/09/21 07:09:32;;;;;;;1999.90;999.90;;;;;;;;;;4954131;28;20236;-72
2023/09/21 07:12:17;;;;;;;1999.90;999.90;;;;;;;;;;4954005;28;20321;-71
2023/09/21 07:15:03;;;;;;;1999.90;999.90;;;;;;;;;;4953791;28;20209;-71
2023/09/21 07:17:50;;;;;;;1999.90;999.90;;;;;;;;;;4953945;28;20712;-71
2023/09/21 07:20:35;;;;;;;1999.90;999.90;;;;;;;;;;4949162;28;20450;-71
2023/09/21 07:23:20;;;;;;;1999.90;999.90;;;;;;;;;;4953235;28;20332;-71
2023/09/21 07:26:06;;;;;;;1999.90;999.90;;;;;;;;;;4947679;28;20584;-72
2023/09/21 07:28:50;;;;;;;1999.90;999.90;;;;;;;;;;4965165;28;20255;-70
2023/09/21 07:31:37;;;;;;;1999.90;999.90;;;;;;;;;;4962205;28;20232;-67
2023/09/21 07:34:23;;;;;;;1999.90;999.90;;;;;;;;;;4951660;28;20609;-70
2023/09/21 07:37:12;;;;;;;1999.90;999.90;;;;;;;;;;4954232;29;20292;-71
2023/09/21 07:39:58;;;;;;;1999.90;999.90;;;;;;;;;;4954132;29;20237;-71
2023/09/21 07:42:44;;;;;;;1999.90;999.90;;;;;;;;;;4954065;29;20589;-71
2023/09/21 07:45:30;;;;;;;1999.90;999.90;;;;;;;;;;4953124;29;20283;-72
2023/09/21 07:48:17;;;;;;;1999.90;999.90;;;;;;;;;;4951687;28;20255;-72
2023/09/21 07:51:04;;;;;;;1999.90;999.90;;;;;;;;;;4952838;28;20227;-72
2023/09/21 07:53:50;;;;;;;1999.90;999.90;;;;;;;;;;4959046;28;20223;-71
2023/09/21 07:56:36;;;;;;;1999.90;999.90;;;;;;;;;;4955312;28;20208;-73
2023/09/21 07:59:21;;;;;;;1999.90;999.90;;;;;;;;;;4963371;28;20240;-71
2023/09/21 08:02:06;;;;;;;1999.90;999.90;;;;;;;;;;4963121;28;20910;-72
2023/09/21 08:04:53;;;;;;;1999.90;999.90;;;;;;;;;;4956708;28;20236;-73
2023/09/21 08:07:38;;;;;;;1999.90;999.90;;;;;;;;;;4977772;28;20882;-72
2023/09/21 08:10:23;;;;;;;1999.90;999.90;;;;;;;;;;4969236;28;20224;-71
2023/09/21 08:13:08;;;;;;;1999.90;999.90;;;;;;;;;;4961766;28;20226;-72
2023/09/21 08:15:53;;;;;;;1999.90;999.90;;;;;;;;;;4956133;28;20796;-69
2023/09/21 08:18:39;;;;;;;1999.90;999.90;;;;;;;;;;4961052;28;20215;-72
2023/09/21 08:21:25;;;;;;;1999.90;999.90;;;;;;;;;;4959222;28;20200;-71
2023/09/21 08:24:10;;;;;;;1999.90;999.90;;;;;;;;;;4963576;28;20816;-71
2023/09/21 08:26:55;;;;;;;1999.90;999.90;;;;;;;;;;4965305;28;20700;-71
2023/09/21 08:29:41;;;;;;;1999.90;999.90;;;;;;;;;;4962984;28;20240;-71
2023/09/21 08:32:26;;;;;;;1999.90;999.90;;;;;;;;;;4986036;28;20236;-72
2023/09/21 08:35:12;;;;;;;1999.90;999.90;;;;;;;;;;4964096;28;20220;-72
2023/09/21 08:37:59;;;;;;;1999.90;999.90;;;;;;;;;;4963059;28;20212;-73
2023/09/21 08:40:46;;;;;;;1999.90;999.90;;;;;;;;;;4961497;28;20421;-72
2023/09/21 08:43:32;;;;;;;1999.90;999.90;;;;;;;;;;4960853;28;20219;-71
2023/09/21 08:46:18;;;;;;;1999.90;999.90;;;;;;;;;;4962750;28;20566;-71
2023/09/21 08:49:03;;;;;;;1999.90;999.90;;;;;;;;;;4971524;28;20251;-71
2023/09/21 08:51:48;;;;;;;1999.90;999.90;;;;;;;;;;4960441;28;20728;-72
2023/09/21 08:54:39;;;;;;;1999.90;999.90;;;;;;;;;;4964866;28;20296;-74
2023/09/21 08:57:24;;;;;;;1999.90;999.90;;;;;;;;;;4971918;28;20296;-70
2023/09/21 09:00:09;;;;;;;1999.90;999.90;;;;;;;;;;4961084;28;20228;-71
2023/09/21 09:02:55;;;;;;;1999.90;999.90;;;;;;;;;;4964382;28;20220;-71
2023/09/21 09:05:40;;;;;;;1999.90;999.90;;;;;;;;;;4973223;28;20215;-71
2023/09/21 09:08:26;;;;;;;1999.90;999.90;;;;;;;;;;4978606;28;20291;-70
2023/09/21 09:11:26;;;;;;;1999.90;999.90;;;;;;;;;;4974069;28;20220;-72
2023/09/21 09:14:14;;;;;;;1999.90;999.90;;;;;;;;;;4977904;28;20476;-70
2023/09/21 09:16:59;;;;;;;1999.90;999.90;;;;;;;;;;4965318;28;20208;-72
2023/09/21 09:19:44;;;;;;;1999.90;999.90;;;;;;;;;;4963287;28;20357;-74
2023/09/21 09:22:31;;;;;;;1999.90;999.90;;;;;;;;;;4983096;28;20229;-72
2023/09/21 09:25:21;;;;;;;1999.90;999.90;;;;;;;;;;4987974;28;20227;-72
2023/09/21 09:28:07;;;;;;;1999.90;999.90;;;;;;;;;;4981624;28;20189;-72
2023/09/21 09:30:54;;;;;;;1999.90;999.90;;;;;;;;;;4985302;28;20217;-73
2023/09/21 09:33:40;;;;;;;1999.90;999.90;;;;;;;;;;4976938;28;20229;-71
2023/09/21 09:36:25;;;;;;;1999.90;999.90;;;;;;;;;;4984612;28;20207;-73
2023/09/21 09:39:14;;;;;;;1999.90;999.90;;;;;;;;;;4978432;28;20232;-71
2023/09/21 09:42:00;;;;;;;1999.90;999.90;;;;;;;;;;4957821;28;20276;-72
2023/09/21 09:44:47;;;;;;;1999.90;999.90;;;;;;;;;;4957164;28;20506;-72
2023/09/21 09:47:37;;;;;;;1999.90;999.90;;;;;;;;;;4955661;28;20200;-73
2023/09/21 09:50:24;;;;;;;1999.90;999.90;;;;;;;;;;4972407;28;20836;-73
2023/09/21 09:53:10;;;;;;;1999.90;999.90;;;;;;;;;;4971224;28;20719;-70
2023/09/21 09:55:56;;;;;;;1999.90;999.90;;;;;;;;;;4960710;28;20211;-71
2023/09/21 09:58:42;;;;;;;1999.90;999.90;;;;;;;;;;4957293;28;20216;-71
2023/09/21 10:01:29;;;;;;;1999.90;999.90;;;;;;;;;;4965913;28;20247;-72
2023/09/21 10:04:16;;;;;;;1999.90;999.90;;;;;;;;;;4969877;28;20204;-71
2023/09/21 10:07:00;;;;;;;1999.90;999.90;;;;;;;;;;4969987;28;20279;-71
2023/09/21 10:09:46;;;;;;;1999.90;999.90;;;;;;;;;;4964208;28;20240;-71
2023/09/21 10:12:32;;;;;;;1999.90;999.90;;;;;;;;;;4967831;28;20243;-71
2023/09/21 10:15:17;;;;;;;1999.90;999.90;;;;;;;;;;4954370;28;20216;-71
2023/09/21 10:18:04;;;;;;;1999.90;999.90;;;;;;;;;;4957127;28;20207;-70
2023/09/21 10:20:51;;;;;;;1999.90;999.90;;;;;;;;;;4958246;28;20733;-74
2023/09/21 10:23:36;;;;;;;1999.90;999.90;;;;;;;;;;4964385;28;20188;-68
2023/09/21 10:26:21;;;;;;;1999.90;999.90;;;;;;;;;;4966930;28;20799;-73
2023/09/21 10:29:07;;;;;;;1999.90;999.90;;;;;;;;;;4955902;28;20244;-72
2023/09/21 10:31:54;;;;;;;1999.90;999.90;;;;;;;;;;4961796;28;20239;-71
2023/09/21 10:34:45;;;;;;;1999.90;999.90;;;;;;;;;;4960155;28;20291;-72
2023/09/21 10:37:32;;;;;;;1999.90;999.90;;;;;;;;;;4959931;28;20311;-71
2023/09/21 10:40:20;;;;;;;1999.90;999.90;;;;;;;;;;4957604;28;20593;-71
2023/09/21 10:43:20;;;;;;;1999.90;999.90;;;;;;;;;;4959232;28;20231;-71
2023/09/21 10:46:16;;;;;;;1999.90;999.90;;;;;;;;;;4958163;28;20192;-71
2023/09/21 10:49:13;;;;;;;1999.90;999.90;;;;;;;;;;4954523;28;20228;-72
2023/09/21 10:51:59;;;;;;;1999.90;999.90;;;;;;;;;;4958475;28;20216;-72
2023/09/21 10:54:47;;;;;;;1999.90;999.90;;;;;;;;;;4964940;28;20535;-70
2023/09/21 10:57:32;;;;;;;1999.90;999.90;;;;;;;;;;4957322;28;20220;-72
2023/09/21 11:00:20;;;;;;;1999.90;999.90;;;;;;;;;;4965181;28;20232;-70
2023/09/21 11:03:05;;;;;;;1999.90;999.90;;;;;;;;;;4966345;28;20315;-71
2023/09/21 11:05:50;;;;;;;1999.90;999.90;;;;;;;;;;4964147;28;20793;-71
2023/09/21 11:08:35;;;;;;;1999.90;999.90;;;;;;;;;;4956997;28;20416;-70
2023/09/21 11:11:21;;;;;;;1999.90;999.90;;;;;;;;;;4956635;28;20695;-69
2023/09/21 11:14:06;;;;;;;1999.90;999.90;;;;;;;;;;4963949;28;20279;-70
2023/09/21 11:16:53;;;;;;;1999.90;999.90;;;;;;;;;;4981517;28;20219;-70
2023/09/21 11:19:38;;;;;;;1999.90;999.90;;;;;;;;;;4973214;28;20235;-70
2023/09/21 11:22:23;;;;;;;1999.90;999.90;;;;;;;;;;4953808;29;20596;-72
2023/09/21 11:25:10;;;;;;;1999.90;999.90;;;;;;;;;;4963960;28;20773;-71
2023/09/21 11:27:59;;;;;;;1999.90;999.90;;;;;;;;;;4970281;28;20220;-70
2023/09/21 11:30:45;;;;;;;1999.90;999.90;;;;;;;;;;4949861;28;20236;-70
2023/09/21 11:33:30;;;;;;;1999.90;999.90;;;;;;;;;;4943909;28;20249;-70
2023/09/21 11:36:15;;;;;;;1999.90;999.90;;;;;;;;;;4955277;29;20208;-69
2023/09/21 11:39:01;;;;;;;1999.90;999.90;;;;;;;;;;4953972;29;20527;-71
2023/09/21 11:41:46;;;;;;;1999.90;999.90;;;;;;;;;;4962228;28;20260;-69
2023/09/21 11:44:34;;;;;;;1999.90;999.90;;;;;;;;;;4937834;29;20213;-70
2023/09/21 11:47:20;;;;;;;1999.90;999.90;;;;;;;;;;4953292;28;20208;-70
2023/09/21 11:50:06;;;;;;;1999.90;999.90;;;;;;;;;;4958511;28;20606;-72
2023/09/21 11:52:54;;;;;;;1999.90;999.90;;;;;;;;;;4963220;28;20795;-71
2023/09/21 11:55:40;;;;;;;1999.90;999.90;;;;;;;;;;4955827;28;20220;-69
2023/09/21 11:58:30;;;;;;;1999.90;999.90;;;;;;;;;;4960951;28;20204;-70
2023/09/21 12:01:19;;;;;;;1999.90;999.90;;;;;;;;;;4953699;28;20790;-70
2023/09/21 12:04:08;;;;;;;1999.90;999.90;;;;;;;;;;4946926;28;20788;-70
2023/09/21 12:06:54;;;;;;;1999.90;999.90;;;;;;;;;;4952712;28;20380;-71
2023/09/21 12:09:41;;;;;;;1999.90;999.90;;;;;;;;;;4951301;28;20241;-71
2023/09/21 12:12:26;;;;;;;1999.90;999.90;;;;;;;;;;4953659;28;20231;-72
2023/09/21 12:15:12;;;;;;;1999.90;999.90;;;;;;;;;;4953937;28;20219;-72
2023/09/21 12:17:58;;;;;;;1999.90;999.90;;;;;;;;;;4960487;28;20228;-71
2023/09/21 12:20:44;;;;;;;1999.90;999.90;;;;;;;;;;4957370;28;20468;-72
2023/09/21 12:23:30;;;;;;;1999.90;999.90;;;;;;;;;;4962352;28;20749;-71
2023/09/21 12:26:15;;;;;;;1999.90;999.90;;;;;;;;;;4959350;28;20216;-71
2023/09/21 12:28:59;;;;;;;1999.90;999.90;;;;;;;;;;4960076;28;20236;-71
2023/09/21 12:31:45;;;;;;;1999.90;999.90;;;;;;;;;;4951499;28;20259;-70
2023/09/21 12:34:33;;;;;;;1999.90;999.90;;;;;;;;;;4951296;28;20291;-70
2023/09/21 12:37:19;;;;;;;1999.90;999.90;;;;;;;;;;4959451;28;20280;-70
2023/09/21 12:40:11;;;;;;;1999.90;999.90;;;;;;;;;;4961981;28;20228;-69
2023/09/21 12:42:56;;;;;;;1999.90;999.90;;;;;;;;;;4950350;28;20205;-69
2023/09/21 12:45:41;;;;;;;1999.90;999.90;;;;;;;;;;4954940;28;20216;-71
2023/09/21 12:48:28;;;;;;;1999.90;999.90;;;;;;;;;;4956176;28;20296;-69
2023/09/21 12:51:15;;;;;;;1999.90;999.90;;;;;;;;;;4953794;28;20983;-71
2023/09/21 12:54:00;;;;;;;1999.90;999.90;;;;;;;;;;4953358;28;20240;-69
2023/09/21 12:56:46;;;;;;;1999.90;999.90;;;;;;;;;;4954173;28;20701;-72
2023/09/21 12:59:31;;;;;;;1999.90;999.90;;;;;;;;;;4952794;28;20229;-69
2023/09/21 13:02:16;;;;;;;1999.90;999.90;;;;;;;;;;4960806;28;20205;-68
2023/09/21 13:05:01;;;;;;;1999.90;999.90;;;;;;;;;;4958974;28;20753;-70
2023/09/21 13:07:47;;;;;;;1999.90;999.90;;;;;;;;;;4950061;28;20217;-69
2023/09/21 13:10:33;;;;;;;1999.90;999.90;;;;;;;;;;4953318;28;20239;-66
2023/09/21 13:13:19;;;;;;;1999.90;999.90;;;;;;;;;;4949674;28;20224;-66
2023/09/21 13:16:05;;;;;;;1999.90;999.90;;;;;;;;;;4951130;28;20570;-66
2023/09/21 13:18:50;;;;;;;1999.90;999.90;;;;;;;;;;4957541;28;20326;-66
2023/09/21 13:21:35;;;;;;;1999.90;999.90;;;;;;;;;;4953470;28;20208;-65
2023/09/21 13:24:22;;;;;;;1999.90;999.90;;;;;;;;;;4954301;28;20213;-67
2023/09/21 13:27:07;;;;;;;1999.90;999.90;;;;;;;;;;4957147;28;20216;-67
2023/09/21 13:29:52;;;;;;;1999.90;999.90;;;;;;;;;;4954596;28;20260;-68
2023/09/21 13:32:37;;;;;;;1999.90;999.90;;;;;;;;;;4958820;28;20444;-66
2023/09/21 13:35:22;;;;;;;1999.90;999.90;;;;;;;;;;4954263;28;20212;-67
2023/09/21 13:38:07;;;;;;;1999.90;999.90;;;;;;;;;;4953092;28;20204;-68
2023/09/21 13:40:54;;;;;;;1999.90;999.90;;;;;;;;;;4959770;28;20292;-67
2023/09/21 13:43:38;;;;;;;1999.90;999.90;;;;;;;;;;4952312;28;20670;-68
2023/09/21 13:46:23;;;;;;;1999.90;999.90;;;;;;;;;;4955165;28;20221;-67
2023/09/21 13:49:08;;;;;;;1999.90;999.90;;;;;;;;;;4956690;28;20379;-67
2023/09/21 13:51:53;;;;;;;1999.90;999.90;;;;;;;;;;4953517;28;20634;-66
2023/09/21 13:54:38;;;;;;;1999.90;999.90;;;;;;;;;;4953864;28;20212;-67
2023/09/21 13:57:29;;;;;;;1999.90;999.90;;;;;;;;;;4961574;28;20274;-67
2023/09/21 14:00:14;;;;;;;1999.90;999.90;;;;;;;;;;4960034;28;20236;-67
2023/09/21 14:02:59;;;;;;;1999.90;999.90;;;;;;;;;;4952244;28;20422;-67
2023/09/21 14:05:44;;;;;;;1999.90;999.90;;;;;;;;;;4959336;28;20224;-66
2023/09/21 14:08:29;;;;;;;1999.90;999.90;;;;;;;;;;4956416;28;20589;-67
2023/09/21 14:11:14;;;;;;;1999.90;999.90;;;;;;;;;;4960223;28;20227;-67
2023/09/21 14:14:00;;;;;;;1999.90;999.90;;;;;;;;;;4967647;28;20240;-67
2023/09/21 14:16:46;;;;;;;1999.90;999.90;;;;;;;;;;4963646;28;20708;-66
2023/09/21 14:19:31;;;;;;;1999.90;999.90;;;;;;;;;;4954252;28;20232;-66
2023/09/21 14:22:16;;;;;;;1999.90;999.90;;;;;;;;;;4966496;28;20259;-66
2023/09/21 14:25:01;;;;;;;1999.90;999.90;;;;;;;;;;4961924;28;20205;-67
2023/09/21 14:27:46;;;;;;;1999.90;999.90;;;;;;;;;;4935737;29;20874;-67
2023/09/21 14:30:32;;;;;;;1999.90;999.90;;;;;;;;;;4936288;29;20226;-66
2023/09/21 14:33:17;;;;;;;1999.90;999.90;;;;;;;;;;4936194;29;20606;-66
2023/09/21 14:36:03;;;;;;;1999.90;999.90;;;;;;;;;;4936268;29;20214;-67
2023/09/21 14:38:48;;;;;;;1999.90;999.90;;;;;;;;;;4936349;29;20714;-66
2023/09/21 14:41:33;;;;;;;1999.90;999.90;;;;;;;;;;4935741;29;20578;-66
2023/09/21 14:44:18;;;;;;;1999.90;999.90;;;;;;;;;;4938405;29;20684;-67
2023/09/21 14:47:05;;;;;;;1999.90;999.90;;;;;;;;;;4953479;28;20224;-66
2023/09/21 14:49:50;;;;;;;1999.90;999.90;;;;;;;;;;4954163;28;20240;-68
2023/09/21 14:52:35;;;;;;;1999.90;999.90;;;;;;;;;;4946651;28;20212;-68
2023/09/21 14:55:20;;;;;;;1999.90;999.90;;;;;;;;;;4954442;28;20221;-68
2023/09/21 14:58:05;;;;;;;1999.90;999.90;;;;;;;;;;4955077;28;20224;-67
2023/09/21 15:00:50;;;;;;;1999.90;999.90;;;;;;;;;;4955173;28;20712;-67
2023/09/21 15:03:37;;;;;;;1999.90;999.90;;;;;;;;;;4960869;28;20304;-67
2023/09/21 15:06:22;;;;;;;1999.90;999.90;;;;;;;;;;4952496;28;20698;-67
2023/09/21 15:09:09;;;;;;;1999.90;999.90;;;;;;;;;;4954429;28;20232;-67
2023/09/21 15:11:53;;;;;;;1999.90;999.90;;;;;;;;;;4948852;28;20229;-67
2023/09/21 15:14:38;;;;;;;1999.90;999.90;;;;;;;;;;4952609;28;20433;-67
2023/09/21 15:17:23;;;;;;;1999.90;999.90;;;;;;;;;;4954373;28;20220;-66
2023/09/21 15:20:10;;;;;;;1999.90;999.90;;;;;;;;;;4954340;28;20304;-67
2023/09/21 15:22:55;;;;;;;1999.90;999.90;;;;;;;;;;4954033;28;20632;-68
2023/09/21 15:25:41;;;;;;;1999.90;999.90;;;;;;;;;;4946375;28;20212;-67
2023/09/21 15:28:27;;;;;;;1999.90;999.90;;;;;;;;;;4953985;28;20240;-68
2023/09/21 15:31:12;;;;;;;1999.90;999.90;;;;;;;;;;4954029;28;20287;-67
2023/09/21 15:33:57;;;;;;;1999.90;999.90;;;;;;;;;;4954206;28;20256;-67
2023/09/21 15:36:44;;;;;;;1999.90;999.90;;;;;;;;;;4954428;28;20216;-68
2023/09/21 15:39:29;;;;;;;1999.90;999.90;;;;;;;;;;4953273;28;20357;-66
2023/09/21 15:42:14;;;;;;;1999.90;999.90;;;;;;;;;;4953694;28;20242;-66
2023/09/21 15:44:59;;;;;;;1999.90;999.90;;;;;;;;;;4953928;28;20720;-67
2023/09/21 15:47:43;;;;;;;1999.90;999.90;;;;;;;;;;4953783;28;20213;-68
2023/09/21 15:50:31;;;;;;;1999.90;999.90;;;;;;;;;;4953565;28;20356;-66
2023/09/21 15:53:19;;;;;;;1999.90;999.90;;;;;;;;;;4953655;28;20232;-67
2023/09/21 15:56:04;;;;;;;1999.90;999.90;;;;;;;;;;4953678;28;20224;-67
2023/09/21 15:58:49;;;;;;;1999.90;999.90;;;;;;;;;;4953339;28;20232;-68
2023/09/21 16:01:34;;;;;;;1999.90;999.90;;;;;;;;;;4952985;28;20276;-66
2023/09/21 16:04:19;;;;;;;1999.90;999.90;;;;;;;;;;4953139;28;20213;-66
2023/09/21 16:07:05;;;;;;;1999.90;999.90;;;;;;;;;;4961708;28;20221;-66
2023/09/21 16:09:52;;;;;;;1999.90;999.90;;;;;;;;;;4946584;28;20617;-66
2023/09/21 16:12:37;;;;;;;1999.90;999.90;;;;;;;;;;4955510;28;20216;-67
2023/09/21 16:15:22;;;;;;;1999.90;999.90;;;;;;;;;;4959637;28;20295;-68
2023/09/21 16:18:07;;;;;;;1999.90;999.90;;;;;;;;;;4958062;28;20220;-67
2023/09/21 16:20:53;;;;;;;1999.90;999.90;;;;;;;;;;4947023;28;20348;-66
2023/09/21 16:23:38;;;;;;;1999.90;999.90;;;;;;;;;;4954546;28;21432;-66
2023/09/21 16:26:24;;;;;;;1999.90;999.90;;;;;;;;;;4956204;28;20221;-66
2023/09/21 16:29:09;;;;;;;1999.90;999.90;;;;;;;;;;4953644;28;20228;-66
2023/09/21 16:31:54;;;;;;;1999.90;999.90;;;;;;;;;;4958207;28;20208;-66
2023/09/21 16:34:40;;;;;;;1999.90;999.90;;;;;;;;;;4952207;28;20256;-66
2023/09/21 16:37:27;;;;;;;1999.90;999.90;;;;;;;;;;4952825;28;20212;-65
2023/09/21 16:40:12;;;;;;;1999.90;999.90;;;;;;;;;;4951716;28;20337;-67
2023/09/21 16:42:59;;;;;;;1999.90;999.90;;;;;;;;;;4957810;28;20569;-67
2023/09/21 16:45:44;;;;;;;1999.90;999.90;;;;;;;;;;4960691;28;20208;-67
2023/09/21 16:48:30;;;;;;;1999.90;999.90;;;;;;;;;;4961539;28;20208;-66
2023/09/21 16:51:16;;;;;;;1999.90;999.90;;;;;;;;;;4955159;28;20232;-66
2023/09/21 16:54:00;;;;;;;1999.90;999.90;;;;;;;;;;4952713;28;20228;-66
2023/09/21 16:56:45;;;;;;;1999.90;999.90;;;;;;;;;;4964641;28;20242;-67
2023/09/21 16:59:32;;;;;;;1999.90;999.90;;;;;;;;;;4957693;28;20227;-65
2023/09/21 17:02:17;;;;;;;1999.90;999.90;;;;;;;;;;4960634;28;20220;-66
2023/09/21 17:05:03;;;;;;;1999.90;999.90;;;;;;;;;;4950384;28;20209;-66
2023/09/21 17:07:48;;;;;;;1999.90;999.90;;;;;;;;;;4964851;28;20201;-66
2023/09/21 17:10:33;;;;;;;1999.90;999.90;;;;;;;;;;4964933;28;20617;-66
2023/09/21 17:13:18;;;;;;;1999.90;999.90;;;;;;;;;;4963909;28;20235;-67
2023/09/21 17:16:05;;;;;;;1999.90;999.90;;;;;;;;;;4950670;28;20220;-67
2023/09/21 17:18:50;;;;;;;1999.90;999.90;;;;;;;;;;4956510;28;20333;-66
2023/09/21 17:21:36;;;;;;;1999.90;999.90;;;;;;;;;;4964638;28;20220;-66
2023/09/21 17:24:21;;;;;;;1999.90;999.90;;;;;;;;;;4956522;28;20295;-65
2023/09/21 17:27:06;;;;;;;1999.90;999.90;;;;;;;;;;4964586;28;20291;-66
2023/09/21 17:29:51;;;;;;;1999.90;999.90;;;;;;;;;;4937546;29;20237;-66
2023/09/21 17:32:37;;;;;;;1999.90;999.90;;;;;;;;;;4956249;29;20212;-68
2023/09/21 17:35:22;;;;;;;1999.90;999.90;;;;;;;;;;4955998;29;20232;-68
2023/09/21 17:38:08;;;;;;;1999.90;999.90;;;;;;;;;;4955689;29;20416;-67
2023/09/21 17:40:53;;;;;;;1999.90;999.90;;;;;;;;;;4956610;29;20208;-66
2023/09/21 17:43:37;;;;;;;1999.90;999.90;;;;;;;;;;4955888;28;20295;-67
2023/09/21 17:46:23;;;;;;;1999.90;999.90;;;;;;;;;;4950680;28;20205;-69
2023/09/21 17:49:11;;;;;;;1999.90;999.90;;;;;;;;;;4958301;28;20602;-68
2023/09/21 17:51:59;;;;;;;1999.90;999.90;;;;;;;;;;4955467;28;20633;-66
2023/09/21 17:54:44;;;;;;;1999.90;999.90;;;;;;;;;;4955217;28;20240;-66
2023/09/21 17:57:29;;;;;;;1999.90;999.90;;;;;;;;;;4962850;28;20203;-69
2023/09/21 18:00:14;;;;;;;1999.90;999.90;;;;;;;;;;4970091;28;20266;-69
2023/09/21 18:03:00;;;;;;;1999.90;999.90;;;;;;;;;;4955351;28;20858;-68
2023/09/21 18:05:46;;;;;;;1999.90;999.90;;;;;;;;;;4959654;28;20584;-68
2023/09/21 18:08:32;;;;;;;1999.90;999.90;;;;;;;;;;4958065;28;20223;-68
2023/09/21 18:11:17;;;;;;;1999.90;999.90;;;;;;;;;;4959121;28;20248;-67
2023/09/21 18:14:03;;;;;;;1999.90;999.90;;;;;;;;;;4953364;28;20757;-66